sensor_id;sensor_type;location;lat;lon;timestamp;pressure;altitude;pressure_sealevel;temperature;humidity
18813;BME280;9534;51.140;6.296;2023-04-06T00:00:22;100782.66;;;1.78;100.00
18813;BME280;9534;51.140;6.296;2023-04-06T00:04:25;100776.31;;;1.69;100.00
18813;BME280;9534;51.140;6.296;2023-04-06T00:08:28;100764.13;;;1.65;100.00
18813;BME280;9534;51.140;6.296;2023-04-06T00:12:33;100769.44;;;1.57;100.00
18813;BME280;9534;51.140;6.296;2023-04-06T00:16:37;100763.94;;;1.49;100.00
18813;BME280;9534;51.140;6.296;2023-04-06T00:20:40;100760.25;;;1.50;100.00
18813;BME280;9534;51.140;6.296;2023-04-06T00:24:43;100761.47;;;1.56;100.00
18813;BME280;9534;51.140;6.296;2023-04-06T00:28:48;100757.16;;;1.45;100.00
18813;BME280;9534;51.140;6.296;2023-04-06T00:32:51;100757.66;;;1.58;100.00
18813;BME280;9534;51.140;6.296;2023-04-06T00:36:55;100754.19;;;1.66;100.00
18813;BME280;9534;51.140;6.296;2023-04-06T00:40:58;100745.56;;;1.62;100.00
18813;BME280;9534;51.140;6.296;2023-04-06T00:45:03;100741.75;;;1.28;100.00
18813;BME280;9534;51.140;6.296;2023-04-06T00:49:06;100731.63;;;1.13;100.00
18813;BME280;9534;51.140;6.296;2023-04-06T00:53:10;100730.88;;;1.21;100.00
18813;BME280;9534;51.140;6.296;2023-04-06T00:57:13;100740.31;;;0.98;100.00
18813;BME280;9534;51.140;6.296;2023-04-06T01:01:19;100731.34;;;1.16;100.00
18813;BME280;9534;51.140;6.296;2023-04-06T01:05:25;100722.69;;;1.13;100.00
18813;BME280;9534;51.140;6.296;2023-04-06T01:09:32;100723.28;;;1.07;100.00
18813;BME280;9534;51.140;6.296;2023-04-06T01:13:40;100720.50;;;0.89;100.00
18813;BME280;9534;51.140;6.296;2023-04-06T01:17:52;100715.69;;;0.93;100.00
18813;BME280;9534;51.140;6.296;2023-04-06T01:21:56;100707.28;;;0.96;100.00
18813;BME280;9534;51.140;6.296;2023-04-06T01:26:05;100716.41;;;0.85;100.00
18813;BME280;9534;51.140;6.296;2023-04-06T01:30:09;100706.00;;;1.00;100.00
18813;BME280;9534;51.140;6.296;2023-04-06T01:34:18;100701.81;;;0.88;100.00
18813;BME280;9534;51.140;6.296;2023-04-06T01:38:21;100699.31;;;0.67;100.00
18813;BME280;9534;51.140;6.296;2023-04-06T01:42:26;100698.19;;;0.70;100.00
18813;BME280;9534;51.140;6.296;2023-04-06T01:46:29;100696.13;;;0.91;100.00
18813;BME280;9534;51.140;6.296;2023-04-06T01:50:34;100692.09;;;1.04;100.00
18813;BME280;9534;51.140;6.296;2023-04-06T01:54:38;100687.25;;;1.08;100.00
18813;BME280;9534;51.140;6.296;2023-04-06T01:58:50;100689.66;;;1.11;100.00
18813;BME280;9534;51.140;6.296;2023-04-06T02:02:53;100691.22;;;1.04;100.00
18813;BME280;9534;51.140;6.296;2023-04-06T02:07:00;100688.75;;;0.93;100.00
18813;BME280;9534;51.140;6.296;2023-04-06T02:11:04;100685.09;;;0.84;100.00
18813;BME280;9534;51.140;6.296;2023-04-06T02:15:15;100685.53;;;0.80;100.00
18813;BME280;9534;51.140;6.296;2023-04-06T02:19:18;100675.13;;;0.94;100.00
18813;BME280;9534;51.140;6.296;2023-04-06T02:23:22;100673.34;;;1.12;100.00
18813;BME280;9534;51.140;6.296;2023-04-06T02:27:26;100662.88;;;1.00;100.00
18813;BME280;9534;51.140;6.296;2023-04-06T02:31:30;100665.00;;;0.79;100.00
18813;BME280;9534;51.140;6.296;2023-04-06T02:35:35;100659.91;;;0.66;100.00
18813;BME280;9534;51.140;6.296;2023-04-06T02:39:38;100662.53;;;0.49;100.00
18813;BME280;9534;51.140;6.296;2023-04-06T02:43:43;100664.53;;;0.47;100.00
18813;BME280;9534;51.140;6.296;2023-04-06T02:47:56;100665.38;;;0.38;100.00
18813;BME280;9534;51.140;6.296;2023-04-06T02:52:00;100671.06;;;0.44;100.00
18813;BME280;9534;51.140;6.296;2023-04-06T02:56:09;100663.41;;;0.40;100.00
18813;BME280;9534;51.140;6.296;2023-04-06T03:00:21;100660.72;;;0.40;100.00
18813;BME280;9534;51.140;6.296;2023-04-06T03:04:26;100661.00;;;0.37;100.00
18813;BME280;9534;51.140;6.296;2023-04-06T03:08:31;100653.97;;;0.26;100.00
18813;BME280;9534;51.140;6.296;2023-04-06T03:12:34;100655.81;;;0.16;100.00
18813;BME280;9534;51.140;6.296;2023-04-06T03:16:47;100659.75;;;0.22;100.00
18813;BME280;9534;51.140;6.296;2023-04-06T03:20:56;100660.47;;;0.24;100.00
18813;BME280;9534;51.140;6.296;2023-04-06T03:25:06;100659.56;;;0.52;100.00
18813;BME280;9534;51.140;6.296;2023-04-06T03:29:10;100653.72;;;0.56;100.00
18813;BME280;9534;51.140;6.296;2023-04-06T03:33:14;100647.03;;;0.70;100.00
18813;BME280;9534;51.140;6.296;2023-04-06T03:37:27;100646.31;;;0.68;100.00
18813;BME280;9534;51.140;6.296;2023-04-06T03:41:35;100647.44;;;0.75;100.00
18813;BME280;9534;51.140;6.296;2023-04-06T03:45:51;100642.97;;;0.93;100.00
18813;BME280;9534;51.140;6.296;2023-04-06T03:49:54;100643.84;;;0.84;100.00
18813;BME280;9534;51.140;6.296;2023-04-06T03:53:59;100629.28;;;0.77;100.00
18813;BME280;9534;51.140;6.296;2023-04-06T03:58:02;100637.75;;;0.82;100.00
18813;BME280;9534;51.140;6.296;2023-04-06T04:02:05;100624.81;;;0.95;100.00
18813;BME280;9534;51.140;6.296;2023-04-06T04:06:09;100631.53;;;1.08;100.00
18813;BME280;9534;51.140;6.296;2023-04-06T04:10:15;100625.78;;;1.21;100.00
18813;BME280;9534;51.140;6.296;2023-04-06T04:14:18;100629.56;;;1.27;100.00
18813;BME280;9534;51.140;6.296;2023-04-06T04:18:22;100625.66;;;1.39;100.00
18813;BME280;9534;51.140;6.296;2023-04-06T04:22:25;100622.97;;;1.39;100.00
18813;BME280;9534;51.140;6.296;2023-04-06T04:26:31;100623.47;;;1.43;100.00
18813;BME280;9534;51.140;6.296;2023-04-06T04:30:34;100623.19;;;1.46;100.00
18813;BME280;9534;51.140;6.296;2023-04-06T04:34:42;100625.75;;;1.47;100.00
18813;BME280;9534;51.140;6.296;2023-04-06T04:38:55;100626.56;;;1.48;100.00
18813;BME280;9534;51.140;6.296;2023-04-06T04:43:00;100628.25;;;1.49;100.00
18813;BME280;9534;51.140;6.296;2023-04-06T04:47:07;100624.97;;;1.55;100.00
18813;BME280;9534;51.140;6.296;2023-04-06T04:51:18;100630.91;;;1.58;100.00
18813;BME280;9534;51.140;6.296;2023-04-06T04:55:34;100630.53;;;1.53;100.00
18813;BME280;9534;51.140;6.296;2023-04-06T04:59:39;100637.78;;;1.70;100.00
18813;BME280;9534;51.140;6.296;2023-04-06T05:03:50;100626.06;;;1.79;100.00
18813;BME280;9534;51.140;6.296;2023-04-06T05:07:54;100636.84;;;1.79;100.00
18813;BME280;9534;51.140;6.296;2023-04-06T05:12:09;100626.78;;;1.89;100.00
18813;BME280;9534;51.140;6.296;2023-04-06T05:16:24;100618.78;;;1.97;100.00
18813;BME280;9534;51.140;6.296;2023-04-06T05:20:27;100620.72;;;2.05;100.00
18813;BME280;9534;51.140;6.296;2023-04-06T05:24:31;100618.28;;;2.19;100.00
18813;BME280;9534;51.140;6.296;2023-04-06T05:28:34;100613.63;;;2.29;100.00
18813;BME280;9534;51.140;6.296;2023-04-06T05:32:40;100606.22;;;2.31;100.00
18813;BME280;9534;51.140;6.296;2023-04-06T05:36:45;100613.00;;;2.35;100.00
18813;BME280;9534;51.140;6.296;2023-04-06T05:40:55;100615.75;;;2.43;100.00
18813;BME280;9534;51.140;6.296;2023-04-06T05:45:02;100616.69;;;2.59;100.00
18813;BME280;9534;51.140;6.296;2023-04-06T05:49:08;100610.06;;;2.79;100.00
18813;BME280;9534;51.140;6.296;2023-04-06T05:53:11;100607.53;;;2.86;100.00
18813;BME280;9534;51.140;6.296;2023-04-06T05:57:19;100600.56;;;3.17;100.00
18813;BME280;9534;51.140;6.296;2023-04-06T06:01:24;100603.34;;;3.41;100.00
18813;BME280;9534;51.140;6.296;2023-04-06T06:05:30;100592.56;;;3.49;100.00
18813;BME280;9534;51.140;6.296;2023-04-06T06:09:40;100601.69;;;3.64;100.00
18813;BME280;9534;51.140;6.296;2023-04-06T06:13:52;100593.25;;;3.82;100.00
18813;BME280;9534;51.140;6.296;2023-04-06T06:17:56;100592.25;;;3.91;100.00
18813;BME280;9534;51.140;6.296;2023-04-06T06:22:02;100590.03;;;4.11;100.00
18813;BME280;9534;51.140;6.296;2023-04-06T06:26:10;100583.09;;;4.08;100.00
18813;BME280;9534;51.140;6.296;2023-04-06T06:30:14;100587.16;;;4.20;100.00
18813;BME280;9534;51.140;6.296;2023-04-06T06:34:19;100589.88;;;4.12;100.00
18813;BME280;9534;51.140;6.296;2023-04-06T06:38:24;100597.25;;;4.42;100.00
18813;BME280;9534;51.140;6.296;2023-04-06T06:42:28;100600.97;;;4.41;100.00
18813;BME280;9534;51.140;6.296;2023-04-06T06:47:07;100597.75;;;4.62;100.00
18813;BME280;9534;51.140;6.296;2023-04-06T06:51:10;100592.47;;;4.68;100.00
18813;BME280;9534;51.140;6.296;2023-04-06T06:55:16;100598.41;;;5.10;100.00
18813;BME280;9534;51.140;6.296;2023-04-06T06:59:21;100597.97;;;5.29;100.00
18813;BME280;9534;51.140;6.296;2023-04-06T07:03:25;100600.25;;;5.70;100.00
18813;BME280;9534;51.140;6.296;2023-04-06T07:07:29;100583.91;;;5.78;100.00
18813;BME280;9534;51.140;6.296;2023-04-06T07:11:34;100584.03;;;5.85;100.00
18813;BME280;9534;51.140;6.296;2023-04-06T07:15:38;100585.03;;;5.92;100.00
18813;BME280;9534;51.140;6.296;2023-04-06T07:19:41;100576.88;;;6.28;100.00
18813;BME280;9534;51.140;6.296;2023-04-06T07:23:44;100573.56;;;6.41;100.00
18813;BME280;9534;51.140;6.296;2023-04-06T07:27:52;100575.34;;;6.48;100.00
18813;BME280;9534;51.140;6.296;2023-04-06T07:31:55;100575.34;;;6.48;100.00
18813;BME280;9534;51.140;6.296;2023-04-06T07:35:58;100579.94;;;6.62;100.00
18813;BME280;9534;51.140;6.296;2023-04-06T07:40:02;100578.25;;;6.90;100.00
18813;BME280;9534;51.140;6.296;2023-04-06T07:44:06;100572.94;;;7.32;100.00
18813;BME280;9534;51.140;6.296;2023-04-06T07:48:12;100574.75;;;7.25;100.00
18813;BME280;9534;51.140;6.296;2023-04-06T07:52:15;100574.31;;;7.57;100.00
18813;BME280;9534;51.140;6.296;2023-04-06T07:56:19;100564.69;;;7.82;100.00
18813;BME280;9534;51.140;6.296;2023-04-06T08:00:25;100562.75;;;7.97;100.00
18813;BME280;9534;51.140;6.296;2023-04-06T08:04:28;100568.81;;;8.13;100.00
18813;BME280;9534;51.140;6.296;2023-04-06T08:08:32;100566.88;;;8.56;100.00
18813;BME280;9534;51.140;6.296;2023-04-06T08:12:35;100559.81;;;8.40;100.00
18813;BME280;9534;51.140;6.296;2023-04-06T08:16:40;100563.41;;;8.74;100.00
18813;BME280;9534;51.140;6.296;2023-04-06T08:20:43;100565.00;;;8.96;100.00
18813;BME280;9534;51.140;6.296;2023-04-06T08:24:46;100567.38;;;9.06;100.00
18813;BME280;9534;51.140;6.296;2023-04-06T08:28:49;100569.16;;;9.26;100.00
18813;BME280;9534;51.140;6.296;2023-04-06T08:32:53;100564.44;;;9.01;100.00
18813;BME280;9534;51.140;6.296;2023-04-06T08:36:57;100567.59;;;9.64;100.00
18813;BME280;9534;51.140;6.296;2023-04-06T08:41:01;100567.25;;;9.86;100.00
18813;BME280;9534;51.140;6.296;2023-04-06T08:45:09;100567.41;;;9.72;100.00
18813;BME280;9534;51.140;6.296;2023-04-06T08:49:14;100567.19;;;9.67;100.00
18813;BME280;9534;51.140;6.296;2023-04-06T08:53:19;100568.28;;;9.73;100.00
18813;BME280;9534;51.140;6.296;2023-04-06T08:57:25;100568.47;;;9.71;100.00
18813;BME280;9534;51.140;6.296;2023-04-06T09:01:29;100559.91;;;10.06;100.00
18813;BME280;9534;51.140;6.296;2023-04-06T09:05:35;100567.31;;;10.12;100.00
18813;BME280;9534;51.140;6.296;2023-04-06T09:09:38;100575.34;;;10.27;100.00
18813;BME280;9534;51.140;6.296;2023-04-06T09:13:46;100573.22;;;10.16;100.00
18813;BME280;9534;51.140;6.296;2023-04-06T09:17:50;100567.53;;;10.50;100.00
18813;BME280;9534;51.140;6.296;2023-04-06T09:22:03;100571.72;;;10.59;100.00
18813;BME280;9534;51.140;6.296;2023-04-06T09:26:08;100578.88;;;11.42;100.00
18813;BME280;9534;51.140;6.296;2023-04-06T09:30:12;100573.31;;;11.68;100.00
18813;BME280;9534;51.140;6.296;2023-04-06T09:34:21;100577.69;;;11.25;100.00
18813;BME280;9534;51.140;6.296;2023-04-06T09:38:25;100574.47;;;10.59;100.00
18813;BME280;9534;51.140;6.296;2023-04-06T09:42:29;100572.00;;;11.20;100.00
18813;BME280;9534;51.140;6.296;2023-04-06T09:46:34;100578.03;;;11.48;100.00
18813;BME280;9534;51.140;6.296;2023-04-06T09:50:59;100570.88;;;11.91;100.00
18813;BME280;9534;51.140;6.296;2023-04-06T09:55:08;100574.00;;;11.95;100.00
18813;BME280;9534;51.140;6.296;2023-04-06T09:59:13;100584.66;;;11.78;100.00
18813;BME280;9534;51.140;6.296;2023-04-06T10:03:25;100572.66;;;11.16;100.00
18813;BME280;9534;51.140;6.296;2023-04-06T10:07:31;100575.56;;;11.34;100.00
18813;BME280;9534;51.140;6.296;2023-04-06T10:11:36;100578.31;;;11.84;100.00
18813;BME280;9534;51.140;6.296;2023-04-06T10:15:40;100593.81;;;11.97;100.00
18813;BME280;9534;51.140;6.296;2023-04-06T10:19:49;100582.69;;;11.41;100.00
18813;BME280;9534;51.140;6.296;2023-04-06T10:23:59;100582.16;;;11.64;100.00
18813;BME280;9534;51.140;6.296;2023-04-06T10:28:07;100581.31;;;11.63;100.00
18813;BME280;9534;51.140;6.296;2023-04-06T10:32:10;100585.59;;;11.53;100.00
18813;BME280;9534;51.140;6.296;2023-04-06T10:36:15;100586.66;;;11.52;100.00
18813;BME280;9534;51.140;6.296;2023-04-06T10:40:25;100596.16;;;11.49;100.00
18813;BME280;9534;51.140;6.296;2023-04-06T10:44:30;100591.31;;;11.95;100.00
18813;BME280;9534;51.140;6.296;2023-04-06T10:48:37;100587.31;;;12.22;100.00
18813;BME280;9534;51.140;6.296;2023-04-06T10:52:43;100580.72;;;13.39;100.00
18813;BME280;9534;51.140;6.296;2023-04-06T10:56:47;100583.84;;;14.48;100.00
18813;BME280;9534;51.140;6.296;2023-04-06T11:00:54;100575.72;;;15.22;100.00
18813;BME280;9534;51.140;6.296;2023-04-06T11:04:58;100586.84;;;13.58;100.00
18813;BME280;9534;51.140;6.296;2023-04-06T11:09:03;100581.94;;;13.07;100.00
18813;BME280;9534;51.140;6.296;2023-04-06T11:13:07;100577.22;;;13.14;100.00
18813;BME280;9534;51.140;6.296;2023-04-06T11:17:11;100580.13;;;12.52;100.00
18813;BME280;9534;51.140;6.296;2023-04-06T11:21:14;100575.16;;;12.12;100.00
18813;BME280;9534;51.140;6.296;2023-04-06T11:25:18;100578.81;;;11.68;100.00
18813;BME280;9534;51.140;6.296;2023-04-06T11:29:23;100580.31;;;11.64;100.00
18813;BME280;9534;51.140;6.296;2023-04-06T11:33:28;100588.59;;;11.45;100.00
18813;BME280;9534;51.140;6.296;2023-04-06T11:37:32;100576.25;;;11.73;100.00
18813;BME280;9534;51.140;6.296;2023-04-06T11:41:35;100577.06;;;11.80;100.00
18813;BME280;9534;51.140;6.296;2023-04-06T11:45:39;100566.22;;;12.23;100.00
18813;BME280;9534;51.140;6.296;2023-04-06T11:49:45;100562.19;;;11.50;100.00
18813;BME280;9534;51.140;6.296;2023-04-06T11:53:49;100566.84;;;10.87;100.00
18813;BME280;9534;51.140;6.296;2023-04-06T11:57:52;100556.19;;;11.22;100.00
18813;BME280;9534;51.140;6.296;2023-04-06T12:01:56;100549.94;;;11.09;100.00
18813;BME280;9534;51.140;6.296;2023-04-06T12:06:01;100559.31;;;11.39;100.00
18813;BME280;9534;51.140;6.296;2023-04-06T12:10:05;100558.50;;;11.25;100.00
18813;BME280;9534;51.140;6.296;2023-04-06T12:14:09;100566.84;;;10.80;100.00
18813;BME280;9534;51.140;6.296;2023-04-06T12:18:12;100555.28;;;10.72;100.00
18813;BME280;9534;51.140;6.296;2023-04-06T12:22:17;100559.75;;;10.53;100.00
18813;BME280;9534;51.140;6.296;2023-04-06T12:26:21;100550.91;;;10.51;100.00
18813;BME280;9534;51.140;6.296;2023-04-06T12:30:24;100550.69;;;10.40;100.00
18813;BME280;9534;51.140;6.296;2023-04-06T12:34:27;100560.53;;;9.89;100.00
18813;BME280;9534;51.140;6.296;2023-04-06T12:38:32;100563.00;;;9.71;100.00
18813;BME280;9534;51.140;6.296;2023-04-06T12:42:35;100554.38;;;9.74;100.00
18813;BME280;9534;51.140;6.296;2023-04-06T12:46:38;100557.94;;;9.62;100.00
18813;BME280;9534;51.140;6.296;2023-04-06T12:50:57;100566.75;;;9.57;100.00
18813;BME280;9534;51.140;6.296;2023-04-06T12:55:02;100558.31;;;9.46;100.00
18813;BME280;9534;51.140;6.296;2023-04-06T12:59:06;100555.75;;;9.38;100.00
18813;BME280;9534;51.140;6.296;2023-04-06T13:03:10;100559.78;;;9.48;100.00
18813;BME280;9534;51.140;6.296;2023-04-06T13:07:13;100554.72;;;9.45;100.00
18813;BME280;9534;51.140;6.296;2023-04-06T13:11:17;100551.56;;;9.48;100.00
18813;BME280;9534;51.140;6.296;2023-04-06T13:15:22;100550.50;;;9.36;100.00
18813;BME280;9534;51.140;6.296;2023-04-06T13:19:25;100543.13;;;9.30;100.00
18813;BME280;9534;51.140;6.296;2023-04-06T13:23:28;100562.50;;;9.48;100.00
18813;BME280;9534;51.140;6.296;2023-04-06T13:27:33;100559.47;;;9.17;100.00
18813;BME280;9534;51.140;6.296;2023-04-06T13:31:37;100573.38;;;8.88;100.00
18813;BME280;9534;51.140;6.296;2023-04-06T13:35:44;100582.31;;;8.76;100.00
18813;BME280;9534;51.140;6.296;2023-04-06T13:39:47;100564.13;;;8.56;100.00
18813;BME280;9534;51.140;6.296;2023-04-06T13:43:52;100570.44;;;8.62;100.00
18813;BME280;9534;51.140;6.296;2023-04-06T13:47:55;100565.66;;;8.64;100.00
18813;BME280;9534;51.140;6.296;2023-04-06T13:51:58;100564.66;;;8.72;100.00
18813;BME280;9534;51.140;6.296;2023-04-06T13:56:01;100568.22;;;8.72;100.00
18813;BME280;9534;51.140;6.296;2023-04-06T14:00:07;100569.06;;;8.73;100.00
18813;BME280;9534;51.140;6.296;2023-04-06T14:04:11;100567.72;;;8.90;100.00
18813;BME280;9534;51.140;6.296;2023-04-06T14:08:15;100568.03;;;8.74;100.00
18813;BME280;9534;51.140;6.296;2023-04-06T14:12:19;100564.59;;;8.65;100.00
18813;BME280;9534;51.140;6.296;2023-04-06T14:16:24;100560.44;;;8.69;100.00
18813;BME280;9534;51.140;6.296;2023-04-06T14:20:28;100556.25;;;8.73;100.00
18813;BME280;9534;51.140;6.296;2023-04-06T14:24:34;100540.91;;;8.66;100.00
18813;BME280;9534;51.140;6.296;2023-04-06T14:28:38;100550.31;;;8.63;100.00
18813;BME280;9534;51.140;6.296;2023-04-06T14:32:43;100541.09;;;8.64;100.00
18813;BME280;9534;51.140;6.296;2023-04-06T14:36:46;100542.78;;;8.65;100.00
18813;BME280;9534;51.140;6.296;2023-04-06T14:40:50;100539.47;;;8.70;100.00
18813;BME280;9534;51.140;6.296;2023-04-06T14:44:53;100531.06;;;8.71;100.00
18813;BME280;9534;51.140;6.296;2023-04-06T14:48:57;100535.25;;;8.67;100.00
18813;BME280;9534;51.140;6.296;2023-04-06T14:53:00;100538.38;;;8.64;100.00
18813;BME280;9534;51.140;6.296;2023-04-06T14:57:03;100539.81;;;8.60;100.00
18813;BME280;9534;51.140;6.296;2023-04-06T15:01:07;100535.44;;;8.60;100.00
18813;BME280;9534;51.140;6.296;2023-04-06T15:05:11;100528.03;;;8.54;100.00
18813;BME280;9534;51.140;6.296;2023-04-06T15:09:15;100524.91;;;8.57;100.00
18813;BME280;9534;51.140;6.296;2023-04-06T15:13:18;100527.16;;;8.47;100.00
18813;BME280;9534;51.140;6.296;2023-04-06T15:17:21;100530.06;;;8.45;100.00
18813;BME280;9534;51.140;6.296;2023-04-06T15:21:25;100534.22;;;8.41;100.00
18813;BME280;9534;51.140;6.296;2023-04-06T15:25:29;100531.06;;;8.38;100.00
18813;BME280;9534;51.140;6.296;2023-04-06T15:29:32;100534.19;;;8.35;100.00
18813;BME280;9534;51.140;6.296;2023-04-06T15:33:35;100527.69;;;8.36;100.00
18813;BME280;9534;51.140;6.296;2023-04-06T15:37:41;100535.88;;;8.36;100.00
18813;BME280;9534;51.140;6.296;2023-04-06T15:41:44;100537.97;;;8.34;100.00
18813;BME280;9534;51.140;6.296;2023-04-06T15:45:47;100532.91;;;8.31;100.00
18813;BME280;9534;51.140;6.296;2023-04-06T15:49:50;100529.53;;;8.29;100.00
18813;BME280;9534;51.140;6.296;2023-04-06T15:53:54;100529.91;;;8.26;100.00
18813;BME280;9534;51.140;6.296;2023-04-06T15:57:57;100526.53;;;8.24;100.00
18813;BME280;9534;51.140;6.296;2023-04-06T16:02:00;100541.47;;;8.28;100.00
18813;BME280;9534;51.140;6.296;2023-04-06T16:06:04;100534.06;;;8.22;100.00
18813;BME280;9534;51.140;6.296;2023-04-06T16:10:11;100547.03;;;8.20;100.00
18813;BME280;9534;51.140;6.296;2023-04-06T16:14:14;100552.50;;;8.20;100.00
18813;BME280;9534;51.140;6.296;2023-04-06T16:18:18;100544.91;;;8.15;100.00
18813;BME280;9534;51.140;6.296;2023-04-06T16:22:22;100549.50;;;8.15;100.00
18813;BME280;9534;51.140;6.296;2023-04-06T16:26:26;100547.38;;;8.10;100.00
18813;BME280;9534;51.140;6.296;2023-04-06T16:30:30;100554.84;;;8.02;100.00
18813;BME280;9534;51.140;6.296;2023-04-06T16:34:33;100551.03;;;7.96;100.00
18813;BME280;9534;51.140;6.296;2023-04-06T16:38:37;100550.13;;;7.89;100.00
18813;BME280;9534;51.140;6.296;2023-04-06T16:42:42;100549.66;;;7.86;100.00
18813;BME280;9534;51.140;6.296;2023-04-06T16:46:47;100561.16;;;7.81;100.00
18813;BME280;9534;51.140;6.296;2023-04-06T16:50:50;100553.38;;;7.78;100.00
18813;BME280;9534;51.140;6.296;2023-04-06T16:54:53;100554.56;;;7.76;100.00
18813;BME280;9534;51.140;6.296;2023-04-06T16:58:58;100548.75;;;7.79;100.00
18813;BME280;9534;51.140;6.296;2023-04-06T17:03:01;100555.88;;;7.80;100.00
18813;BME280;9534;51.140;6.296;2023-04-06T17:07:04;100539.31;;;7.75;100.00
18813;BME280;9534;51.140;6.296;2023-04-06T17:11:08;100538.50;;;7.81;100.00
18813;BME280;9534;51.140;6.296;2023-04-06T17:15:13;100536.81;;;7.80;100.00
18813;BME280;9534;51.140;6.296;2023-04-06T17:19:16;100534.47;;;7.77;100.00
18813;BME280;9534;51.140;6.296;2023-04-06T17:23:19;100529.03;;;7.77;100.00
18813;BME280;9534;51.140;6.296;2023-04-06T17:27:25;100531.13;;;7.75;100.00
18813;BME280;9534;51.140;6.296;2023-04-06T17:31:30;100538.22;;;7.76;100.00
18813;BME280;9534;51.140;6.296;2023-04-06T17:35:33;100543.69;;;7.76;100.00
18813;BME280;9534;51.140;6.296;2023-04-06T17:39:36;100542.22;;;7.73;100.00
18813;BME280;9534;51.140;6.296;2023-04-06T17:43:40;100538.66;;;7.73;100.00
18813;BME280;9534;51.140;6.296;2023-04-06T17:47:44;100532.56;;;7.71;100.00
18813;BME280;9534;51.140;6.296;2023-04-06T17:51:48;100532.28;;;7.66;100.00
18813;BME280;9534;51.140;6.296;2023-04-06T17:55:51;100534.38;;;7.64;100.00
18813;BME280;9534;51.140;6.296;2023-04-06T17:59:54;100532.69;;;7.63;100.00
18813;BME280;9534;51.140;6.296;2023-04-06T18:03:59;100534.16;;;7.65;100.00
18813;BME280;9534;51.140;6.296;2023-04-06T18:08:02;100527.25;;;7.63;100.00
18813;BME280;9534;51.140;6.296;2023-04-06T18:12:06;100528.06;;;7.63;100.00
18813;BME280;9534;51.140;6.296;2023-04-06T18:16:09;100534.38;;;7.64;100.00
18813;BME280;9534;51.140;6.296;2023-04-06T18:20:14;100531.56;;;7.57;100.00
18813;BME280;9534;51.140;6.296;2023-04-06T18:24:19;100533.44;;;7.57;100.00
18813;BME280;9534;51.140;6.296;2023-04-06T18:28:42;100516.84;;;7.52;100.00
18813;BME280;9534;51.140;6.296;2023-04-06T18:32:45;100519.56;;;7.52;100.00
18813;BME280;9534;51.140;6.296;2023-04-06T18:36:52;100523.34;;;7.51;100.00
18813;BME280;9534;51.140;6.296;2023-04-06T18:40:55;100517.41;;;7.47;100.00
18813;BME280;9534;51.140;6.296;2023-04-06T18:44:59;100520.78;;;7.49;100.00
18813;BME280;9534;51.140;6.296;2023-04-06T18:49:03;100524.16;;;7.51;100.00
18813;BME280;9534;51.140;6.296;2023-04-06T18:53:07;100523.34;;;7.51;100.00
18813;BME280;9534;51.140;6.296;2023-04-06T18:57:11;100525.03;;;7.52;100.00
18813;BME280;9534;51.140;6.296;2023-04-06T19:01:22;100522.09;;;7.53;100.00
18813;BME280;9534;51.140;6.296;2023-04-06T19:05:25;100519.97;;;7.49;100.00
18813;BME280;9534;51.140;6.296;2023-04-06T19:09:30;100520.63;;;7.51;100.00
18813;BME280;9534;51.140;6.296;2023-04-06T19:13:33;100518.72;;;7.51;100.00
18813;BME280;9534;51.140;6.296;2023-04-06T19:17:38;100515.81;;;7.53;100.00
18813;BME280;9534;51.140;6.296;2023-04-06T19:21:42;100513.75;;;7.55;100.00
18813;BME280;9534;51.140;6.296;2023-04-06T19:25:46;100509.50;;;7.52;100.00
18813;BME280;9534;51.140;6.296;2023-04-06T19:29:50;100512.25;;;7.52;100.00
18813;BME280;9534;51.140;6.296;2023-04-06T19:33:54;100504.53;;;7.56;100.00
18813;BME280;9534;51.140;6.296;2023-04-06T19:37:58;100504.53;;;7.56;100.00
18813;BME280;9534;51.140;6.296;2023-04-06T19:42:03;100502.84;;;7.55;100.00
18813;BME280;9534;51.140;6.296;2023-04-06T19:46:06;100504.53;;;7.56;100.00
18813;BME280;9534;51.140;6.296;2023-04-06T19:50:10;100506.78;;;7.52;100.00
18813;BME280;9534;51.140;6.296;2023-04-06T19:54:13;100503.69;;;7.55;100.00
18813;BME280;9534;51.140;6.296;2023-04-06T19:58:18;100506.22;;;7.57;100.00
18813;BME280;9534;51.140;6.296;2023-04-06T20:02:22;100507.91;;;7.58;100.00
18813;BME280;9534;51.140;6.296;2023-04-06T20:06:26;100502.84;;;7.55;100.00
18813;BME280;9534;51.140;6.296;2023-04-06T20:10:32;100499.09;;;7.56;100.00
18813;BME280;9534;51.140;6.296;2023-04-06T20:14:36;100503.69;;;7.55;100.00
18813;BME280;9534;51.140;6.296;2023-04-06T20:18:40;100495.34;;;7.57;100.00
18813;BME280;9534;51.140;6.296;2023-04-06T20:22:43;100489.25;;;7.55;100.00
18813;BME280;9534;51.140;6.296;2023-04-06T20:26:47;100497.03;;;7.58;100.00
18813;BME280;9534;51.140;6.296;2023-04-06T20:30:52;100482.38;;;7.59;100.00
18813;BME280;9534;51.140;6.296;2023-04-06T20:34:56;100488.47;;;7.61;100.00
18813;BME280;9534;51.140;6.296;2023-04-06T20:38:59;100487.44;;;7.62;100.00
18813;BME280;9534;51.140;6.296;2023-04-06T20:43:03;100482.25;;;7.67;100.00
18813;BME280;9534;51.140;6.296;2023-04-06T20:47:08;100486.25;;;7.71;100.00
18813;BME280;9534;51.140;6.296;2023-04-06T20:51:17;100479.56;;;7.73;100.00
18813;BME280;9534;51.140;6.296;2023-04-06T20:55:21;100482.50;;;7.72;100.00
18813;BME280;9534;51.140;6.296;2023-04-06T20:59:24;100469.97;;;7.77;100.00
18813;BME280;9534;51.140;6.296;2023-04-06T21:03:29;100477.75;;;7.80;100.00
18813;BME280;9534;51.140;6.296;2023-04-06T21:07:32;100470.00;;;7.84;100.00
18813;BME280;9534;51.140;6.296;2023-04-06T21:11:36;100467.53;;;7.89;100.00
18813;BME280;9534;51.140;6.296;2023-04-06T21:15:39;100464.22;;;7.93;100.00
18813;BME280;9534;51.140;6.296;2023-04-06T21:19:44;100467.22;;;7.98;100.00
18813;BME280;9534;51.140;6.296;2023-04-06T21:23:49;100472.25;;;8.01;100.00
18813;BME280;9534;51.140;6.296;2023-04-06T21:27:52;100467.88;;;8.07;100.00
18813;BME280;9534;51.140;6.296;2023-04-06T21:31:55;100466.41;;;8.04;100.00